Time;durP1;ratioP1;P1;durP2;ratioP2;P2;SDS_P1;SDS_P2;PMS_P1;PMS_P2;Temp;Humidity;BMP_temperature;BMP_pressure;BME280_temperature;BME280_humidity;BME280_pressure;Samples;Min_cycle;Max_cycle;Signal;HPM_P1;HPM_P2
2023/04/25 00:00:56;;;;;;;14.23;7.23;;;;;;;8.24;100.00;100504.81;5018807;28;20199;-71
2023/04/25 00:03:24;;;;;;;11.53;6.97;;;;;;;8.25;100.00;100504.00;5008439;28;20205;-70
2023/04/25 00:05:51;;;;;;;11.97;7.10;;;;;;;8.28;100.00;100510.84;5020857;28;20579;-72
2023/04/25 00:08:17;;;;;;;8.00;5.70;;;;;;;8.31;100.00;100510.94;5027604;28;20293;-72
2023/04/25 00:10:42;;;;;;;8.33;6.10;;;;;;;8.26;100.00;100503.19;5022598;28;20277;-72
2023/04/25 00:13:09;;;;;;;12.37;6.20;;;;;;;8.30;100.00;100517.72;5022378;28;20406;-72
2023/04/25 00:15:35;;;;;;;8.73;5.50;;;;;;;8.30;100.00;100509.22;5023230;28;20273;-71
2023/04/25 00:18:01;;;;;;;6.97;5.27;;;;;;;8.32;100.00;100515.19;5022111;28;20230;-72
2023/04/25 00:20:26;;;;;;;8.83;5.20;;;;;;;8.31;100.00;100509.25;5020858;28;20652;-70
2023/04/25 00:22:55;;;;;;;9.60;5.47;;;;;;;8.33;100.00;100519.47;5023929;28;20808;-69
2023/04/25 00:25:21;;;;;;;8.37;5.20;;;;;;;8.33;100.00;100522.00;5012565;28;20195;-70
2023/04/25 00:27:46;;;;;;;7.93;5.10;;;;;;;8.30;100.00;100519.41;5025341;28;20196;-72
2023/04/25 00:30:12;;;;;;;8.37;5.43;;;;;;;8.28;100.00;100514.28;5021437;28;20197;-71
2023/04/25 00:32:38;;;;;;;9.57;5.53;;;;;;;8.28;100.00;100509.16;5022065;28;20291;-71
2023/04/25 00:35:03;;;;;;;9.37;5.47;;;;;;;8.31;100.00;100516.03;4991599;28;20300;-74
2023/04/25 00:37:29;;;;;;;10.47;6.63;;;;;;;8.27;100.00;100519.34;5002330;28;20194;-73
2023/04/25 00:39:55;;;;;;;9.17;5.70;;;;;;;8.29;100.00;100525.34;5024822;28;20214;-74
2023/04/25 00:42:21;;;;;;;10.13;5.80;;;;;;;8.20;100.00;100525.97;4991929;28;20678;-72
2023/04/25 00:44:47;;;;;;;7.87;5.13;;;;;;;8.16;100.00;100520.75;5021523;28;20194;-71
2023/04/25 00:47:13;;;;;;;7.33;5.33;;;;;;;8.17;100.00;100525.88;5018088;28;20269;-71
2023/04/25 00:49:38;;;;;;;9.20;4.73;;;;;;;8.18;100.00;100530.16;5019085;28;20249;-71
2023/04/25 00:52:04;;;;;;;6.23;4.20;;;;;;;8.19;100.00;100534.44;5018699;28;20281;-71
2023/04/25 00:54:30;;;;;;;6.60;3.73;;;;;;;8.22;100.00;100532.00;5015705;28;20213;-71
2023/04/25 00:56:56;;;;;;;6.07;3.90;;;;;;;8.17;100.00;100538.63;5009561;28;20178;-71
2023/04/25 00:59:22;;;;;;;6.73;3.73;;;;;;;8.19;100.00;100538.66;5023277;28;20284;-71
2023/04/25 01:01:48;;;;;;;9.97;4.37;;;;;;;8.13;100.00;100533.41;5021824;28;20201;-73
2023/04/25 01:04:13;;;;;;;10.27;4.60;;;;;;;8.06;100.00;100531.56;5003474;28;20193;-71
2023/04/25 01:06:40;;;;;;;9.97;3.77;;;;;;;8.09;100.00;100537.59;5010866;28;20222;-70
2023/04/25 01:09:05;;;;;;;9.67;4.07;;;;;;;8.11;100.00;100535.94;5022711;28;20746;-71
2023/04/25 01:11:31;;;;;;;10.63;4.27;;;;;;;8.14;100.00;100547.88;5007314;28;20280;-70
2023/04/25 01:13:57;;;;;;;11.10;3.87;;;;;;;8.13;100.00;100541.06;5018576;28;20187;-72
2023/04/25 01:16:23;;;;;;;17.13;4.70;;;;;;;8.11;100.00;100540.19;5014635;28;20277;-72
2023/04/25 01:18:51;;;;;;;20.50;4.90;;;;;;;8.07;100.00;100535.81;5010887;28;20280;-71
2023/04/25 01:21:16;;;;;;;16.10;5.27;;;;;;;8.02;100.00;100543.34;5020834;28;20715;-71
2023/04/25 01:23:43;;;;;;;22.33;5.23;;;;;;;8.00;100.00;100534.81;5010769;28;20237;-71
2023/04/25 01:26:10;;;;;;;19.40;4.83;;;;;;;8.04;100.00;100543.38;5007851;28;20715;-71
2023/04/25 01:28:37;;;;;;;15.50;5.70;;;;;;;8.07;100.00;100546.88;5020328;28;20202;-72
2023/04/25 01:31:05;;;;;;;14.83;4.37;;;;;;;8.09;100.00;100552.00;5016620;28;20186;-72
2023/04/25 01:33:31;;;;;;;15.00;5.13;;;;;;;8.11;100.00;100546.13;5007650;28;20198;-72
2023/04/25 01:35:56;;;;;;;16.50;4.83;;;;;;;8.10;100.00;100541.84;5021227;28;20183;-72
2023/04/25 01:38:22;;;;;;;15.60;4.93;;;;;;;8.10;100.00;100551.19;5007667;28;20217;-70
2023/04/25 01:40:50;;;;;;;16.73;4.80;;;;;;;8.03;100.00;100551.88;5005503;28;20278;-74
2023/04/25 01:43:18;;;;;;;22.63;4.97;;;;;;;7.95;100.00;100555.91;5021082;28;20265;-71
2023/04/25 01:45:44;;;;;;;22.93;5.17;;;;;;;7.95;100.00;100558.47;5006134;28;20230;-71
2023/04/25 01:48:12;;;;;;;20.97;5.20;;;;;;;7.93;100.00;100553.31;5018199;28;20218;-70
2023/04/25 01:50:40;;;;;;;21.83;5.03;;;;;;;7.88;100.00;100562.53;5003014;28;20195;-71
2023/04/25 01:53:06;;;;;;;27.33;5.90;;;;;;;7.85;100.00;100566.72;5020290;28;20195;-73
2023/04/25 01:55:31;;;;;;;22.67;5.60;;;;;;;7.84;100.00;100564.97;5006461;28;20190;-72
2023/04/25 01:58:03;;;;;;;21.30;4.40;;;;;;;7.82;100.00;100572.59;5020647;28;20635;-71
2023/04/25 02:00:50;;;;;;;22.70;5.27;;;;;;;7.80;100.00;100573.38;5010895;28;20249;-74
2023/04/25 02:03:16;;;;;;;23.67;5.27;;;;;;;7.76;100.00;100572.44;5020552;28;20194;-73
2023/04/25 02:05:41;;;;;;;32.40;6.07;;;;;;;7.77;100.00;100579.25;5012989;28;20210;-70
2023/04/25 02:08:10;;;;;;;27.17;5.80;;;;;;;7.74;100.00;100581.72;5003234;28;21066;-71
2023/04/25 02:10:36;;;;;;;17.13;5.27;;;;;;;7.73;100.00;100582.53;5007476;28;20197;-71
2023/04/25 02:13:13;;;;;;;23.67;5.00;;;;;;;7.69;100.00;100585.81;5005702;28;20203;-70
2023/04/25 02:15:44;;;;;;;23.47;5.53;;;;;;;7.71;100.00;100593.53;5005747;28;20185;-73
2023/04/25 02:18:16;;;;;;;22.97;4.90;;;;;;;7.67;100.00;100592.59;5023771;28;20926;-72
2023/04/25 02:20:42;;;;;;;24.40;5.57;;;;;;;7.65;100.00;100594.22;5022528;28;20198;-70
2023/04/25 02:23:08;;;;;;;22.50;5.70;;;;;;;7.63;100.00;100598.41;5024433;28;20206;-70
2023/04/25 02:25:33;;;;;;;20.13;5.37;;;;;;;7.63;100.00;100605.19;5010133;28;20210;-70
2023/04/25 02:27:59;;;;;;;25.17;6.17;;;;;;;7.61;100.00;100602.59;5011274;28;20563;-72
2023/04/25 02:30:24;;;;;;;23.53;5.30;;;;;;;7.62;100.00;100601.78;5010796;28;20190;-70
2023/04/25 02:32:50;;;;;;;14.60;4.83;;;;;;;7.59;100.00;100608.47;5010328;28;20221;-71
2023/04/25 02:35:16;;;;;;;19.03;5.23;;;;;;;7.56;100.00;100608.41;5001950;28;20198;-71
2023/04/25 02:37:42;;;;;;;23.93;5.07;;;;;;;7.52;100.00;100602.38;5023519;28;20209;-71
2023/04/25 02:40:08;;;;;;;18.97;4.93;;;;;;;7.53;100.00;100605.75;5022936;28;20202;-72
2023/04/25 02:42:34;;;;;;;25.77;5.50;;;;;;;7.48;100.00;100609.88;5012468;28;20305;-70
2023/04/25 02:45:00;;;;;;;28.27;5.07;;;;;;;7.41;100.00;100608.84;5007763;28;20225;-71
2023/04/25 02:47:26;;;;;;;24.03;5.50;;;;;;;7.42;100.00;100607.16;5012979;28;20970;-72
2023/04/25 02:49:51;;;;;;;16.57;4.97;;;;;;;7.41;100.00;100613.09;5007974;28;20297;-70
2023/04/25 02:52:17;;;;;;;22.77;4.63;;;;;;;7.38;100.00;100620.63;5020549;28;20194;-71
2023/04/25 02:54:44;;;;;;;21.80;5.27;;;;;;;7.29;100.00;100622.91;5013377;28;20735;-71
2023/04/25 02:57:10;;;;;;;21.37;4.70;;;;;;;7.25;100.00;100624.50;5024650;28;20255;-73
2023/04/25 02:59:37;;;;;;;26.53;5.10;;;;;;;7.19;100.00;100620.91;5009224;28;20213;-71
2023/04/25 03:02:02;;;;;;;19.27;4.43;;;;;;;7.13;100.00;100626.69;5012687;28;20206;-71
2023/04/25 03:04:28;;;;;;;17.63;4.63;;;;;;;7.13;100.00;100624.16;5019223;28;20247;-71
2023/04/25 03:06:54;;;;;;;22.20;5.10;;;;;;;7.14;100.00;100625.03;4983603;28;20677;-71
2023/04/25 03:09:20;;;;;;;21.13;4.83;;;;;;;7.14;100.00;100630.13;5021058;28;20238;-71
2023/04/25 03:11:46;;;;;;;21.83;4.53;;;;;;;7.14;100.00;100625.03;5009002;28;20657;-72
2023/04/25 03:14:12;;;;;;;21.70;4.73;;;;;;;7.14;100.00;100625.88;5020604;28;20253;-70
2023/04/25 03:16:38;;;;;;;20.00;5.17;;;;;;;7.15;100.00;100630.16;5021033;28;20183;-70
2023/04/25 03:19:04;;;;;;;21.37;5.07;;;;;;;7.13;100.00;100630.91;5024136;28;20222;-70
2023/04/25 03:21:35;;;;;;;17.23;4.40;;;;;;;7.13;100.00;100639.41;5013406;28;20191;-70
2023/04/25 03:24:02;;;;;;;27.80;5.47;;;;;;;7.08;100.00;100642.63;5019178;28;20814;-71
2023/04/25 03:26:28;;;;;;;25.83;4.50;;;;;;;7.06;100.00;100641.75;5011489;28;20606;-73
2023/04/25 03:28:53;;;;;;;19.10;5.37;;;;;;;7.06;100.00;100647.72;5022086;28;20261;-70
2023/04/25 03:31:19;;;;;;;23.33;5.27;;;;;;;7.05;100.00;100645.09;5005061;28;20237;-70
2023/04/25 03:33:45;;;;;;;18.13;4.30;;;;;;;7.07;100.00;100651.09;5008320;28;20206;-70
2023/04/25 03:36:10;;;;;;;17.47;4.70;;;;;;;7.07;100.00;100646.88;5009904;28;20194;-70
2023/04/25 03:38:36;;;;;;;20.37;4.23;;;;;;;7.06;100.00;100657.88;5015988;28;20202;-71
2023/04/25 03:41:02;;;;;;;23.53;5.13;;;;;;;7.04;100.00;100658.66;5009084;28;20766;-70
2023/04/25 03:43:48;;;;;;;20.67;4.70;;;;;;;7.01;100.00;100663.66;5013311;28;20217;-71
2023/04/25 03:46:16;;;;;;;19.27;4.50;;;;;;;6.96;100.00;100663.50;4989225;28;20318;-73
2023/04/25 03:48:41;;;;;;;21.90;4.87;;;;;;;6.96;100.00;100665.19;4996390;28;20329;-73
2023/04/25 03:51:10;;;;;;;22.33;5.17;;;;;;;6.89;100.00;100668.34;4972451;28;20207;-74
2023/04/25 03:53:38;;;;;;;23.30;5.27;;;;;;;6.85;100.00;100667.41;5013710;28;20205;-71
2023/04/25 03:56:20;;;;;;;19.77;4.50;;;;;;;6.75;100.00;100674.69;5020955;28;20210;-71
2023/04/25 03:58:47;;;;;;;23.47;5.23;;;;;;;6.71;100.00;100668.66;5009517;28;20232;-73
2023/04/25 04:01:15;;;;;;;25.17;5.20;;;;;;;6.67;100.00;100674.44;5020348;28;20959;-71
2023/04/25 04:03:41;;;;;;;27.37;5.37;;;;;;;6.63;100.00;100679.41;5009616;28;20191;-71
2023/04/25 04:06:07;;;;;;;27.23;5.33;;;;;;;6.61;100.00;100676.81;5004073;28;20217;-71
2023/04/25 04:08:36;;;;;;;19.17;4.20;;;;;;;6.62;100.00;100677.66;5005213;28;20213;-72
2023/04/25 04:11:02;;;;;;;21.43;4.50;;;;;;;6.59;100.00;100678.41;5023598;28;20288;-72
2023/04/25 04:13:28;;;;;;;28.60;5.13;;;;;;;6.57;100.00;100686.81;5008364;28;20222;-71
2023/04/25 04:15:55;;;;;;;18.63;4.40;;;;;;;6.58;100.00;100689.41;5007667;28;20189;-73
2023/04/25 04:18:21;;;;;;;16.50;3.87;;;;;;;6.60;100.00;100681.84;5021286;28;20260;-71
2023/04/25 04:20:47;;;;;;;21.43;4.27;;;;;;;6.62;100.00;100692.91;5011743;28;20256;-70
2023/04/25 04:23:13;;;;;;;23.97;5.13;;;;;;;6.56;100.00;100696.16;5018166;28;20194;-71
2023/04/25 04:25:40;;;;;;;22.07;4.00;;;;;;;6.51;100.00;100699.34;5022367;28;20214;-71
2023/04/25 04:28:27;;;;;;;19.47;4.10;;;;;;;6.45;100.00;100702.53;5007855;28;20230;-71
2023/04/25 04:31:02;;;;;;;22.70;4.13;;;;;;;6.45;100.00;100710.16;5012795;28;20198;-72
2023/04/25 04:33:29;;;;;;;19.07;4.27;;;;;;;6.44;100.00;100718.63;5006951;28;20187;-71
2023/04/25 04:35:58;;;;;;;18.13;4.17;;;;;;;6.49;100.00;100711.16;5006337;28;20179;-71
2023/04/25 04:38:25;;;;;;;18.67;4.47;;;;;;;6.50;100.00;100708.63;5016364;28;20210;-70
2023/04/25 04:40:53;;;;;;;21.53;4.43;;;;;;;6.53;100.00;100721.47;4991004;28;20201;-70
2023/04/25 04:43:33;;;;;;;18.70;4.07;;;;;;;6.52;100.00;100717.22;5009332;28;20200;-71
2023/04/25 04:46:24;;;;;;;16.57;3.57;;;;;;;6.56;100.00;100726.66;5010750;28;20222;-70
2023/04/25 04:49:16;;;;;;;21.83;4.03;;;;;;;6.56;100.00;100729.22;4995885;28;20230;-72
2023/04/25 04:51:59;;;;;;;18.13;4.63;;;;;;;6.42;100.00;100737.19;5006874;28;20218;-70
2023/04/25 04:54:54;;;;;;;16.50;4.00;;;;;;;6.41;100.00;100735.47;4936269;28;20197;-73
2023/04/25 04:57:58;;;;;;;19.67;4.20;;;;;;;6.44;100.00;100733.88;5011726;28;20210;-74
2023/04/25 05:00:45;;;;;;;15.43;3.60;;;;;;;6.41;100.00;100733.75;5007796;28;20201;-71
2023/04/25 05:03:28;;;;;;;18.33;4.23;;;;;;;6.40;100.00;100732.03;5016095;28;20329;-71
2023/04/25 05:06:20;;;;;;;17.20;4.20;;;;;;;6.48;100.00;100725.53;5012979;28;20218;-73
2023/04/25 05:09:00;;;;;;;16.33;4.50;;;;;;;6.54;100.00;100742.69;5006393;28;20214;-71
2023/04/25 05:11:46;;;;;;;21.20;4.83;;;;;;;6.62;100.00;100741.25;4996889;28;20297;-71
2023/04/25 05:14:38;;;;;;;14.87;4.60;;;;;;;6.69;100.00;100743.19;5016763;28;20206;-70
2023/04/25 05:17:15;;;;;;;15.50;4.00;;;;;;;6.77;100.00;100739.22;5003033;28;20248;-72
2023/04/25 05:20:01;;;;;;;14.30;4.00;;;;;;;6.83;100.00;100735.22;5006102;28;20229;-71
2023/04/25 05:22:53;;;;;;;24.27;5.83;;;;;;;6.91;100.00;100741.38;5014256;28;20669;-73
2023/04/25 05:25:50;;;;;;;23.20;4.17;;;;;;;7.08;100.00;100736.81;4999019;28;20254;-74
2023/04/25 05:28:51;;;;;;;17.87;4.40;;;;;;;7.23;100.00;100744.97;5009253;28;20217;-72
2023/04/25 05:31:36;;;;;;;16.77;4.07;;;;;;;7.36;100.00;100707.16;5007568;28;20209;-72
2023/04/25 05:34:08;;;;;;;14.83;3.60;;;;;;;7.26;100.00;100730.63;5005978;28;20186;-74
2023/04/25 05:36:41;;;;;;;17.43;3.87;;;;;;;7.13;100.00;100738.72;5007756;28;20190;-74
2023/04/25 05:39:06;;;;;;;16.80;3.73;;;;;;;7.09;100.00;100761.50;5003198;28;20614;-73
2023/04/25 05:41:59;;;;;;;23.73;4.20;;;;;;;7.02;100.00;100764.63;5019482;28;20199;-71
2023/04/25 05:44:44;;;;;;;20.80;3.80;;;;;;;7.03;100.00;100763.81;5022582;28;20201;-73
2023/04/25 05:47:33;;;;;;;17.47;3.77;;;;;;;7.04;100.00;100779.16;5022508;28;20219;-71
2023/04/25 05:50:18;;;;;;;22.87;4.03;;;;;;;7.00;100.00;100790.03;5017615;28;20738;-73
2023/04/25 05:53:13;;;;;;;15.90;3.83;;;;;;;6.97;100.00;100784.88;5012258;28;20202;-72
2023/04/25 05:55:40;;;;;;;18.87;4.93;;;;;;;6.98;100.00;100804.41;5008005;28;20939;-72
2023/04/25 05:58:24;;;;;;;16.53;4.63;;;;;;;6.99;100.00;100787.44;5011979;28;20726;-73
2023/04/25 06:00:49;;;;;;;16.00;3.93;;;;;;;7.00;100.00;100781.56;5010408;28;20570;-71
2023/04/25 06:03:16;;;;;;;17.10;3.83;;;;;;;7.00;100.00;100779.00;5018945;28;20191;-73
2023/04/25 06:05:42;;;;;;;14.00;3.43;;;;;;;7.10;100.00;100786.13;5017881;28;20225;-72
2023/04/25 06:08:08;;;;;;;19.50;4.37;;;;;;;7.16;100.00;100787.19;5017981;28;20218;-73
2023/04/25 06:10:34;;;;;;;19.37;4.07;;;;;;;7.17;100.00;100786.38;5026894;28;20208;-72
2023/04/25 06:12:59;;;;;;;15.23;3.80;;;;;;;7.21;100.00;100785.66;5021213;28;20197;-71
2023/04/25 06:15:25;;;;;;;15.30;3.57;;;;;;;7.14;100.00;100770.97;4996727;28;20227;-71
2023/04/25 06:17:51;;;;;;;12.13;3.73;;;;;;;7.32;100.00;100798.72;5023408;28;20661;-71
2023/04/25 06:20:16;;;;;;;12.70;3.53;;;;;;;7.34;100.00;100786.88;5002342;28;20301;-73
2023/04/25 06:22:41;;;;;;;13.60;3.60;;;;;;;7.33;100.00;100773.28;5004188;28;20686;-72
2023/04/25 06:25:07;;;;;;;15.33;3.93;;;;;;;7.38;100.00;100771.72;5021973;28;20198;-72
2023/04/25 06:27:34;;;;;;;12.67;3.27;;;;;;;7.51;100.00;100773.84;4983474;28;20237;-71
2023/04/25 06:30:00;;;;;;;15.83;4.17;;;;;;;7.37;100.00;100759.81;5022803;28;20261;-72
2023/04/25 06:32:28;;;;;;;14.97;3.70;;;;;;;7.44;100.00;100771.94;5022800;28;20646;-71
2023/04/25 06:34:54;;;;;;;14.17;3.47;;;;;;;7.52;100.00;100772.16;5009948;28;20281;-73
2023/04/25 06:37:19;;;;;;;14.90;4.13;;;;;;;7.58;100.00;100770.66;5004878;28;20290;-73
2023/04/25 06:39:45;;;;;;;16.33;3.20;;;;;;;7.86;100.00;100763.00;5013350;28;20300;-72
2023/04/25 06:42:10;;;;;;;17.70;3.37;;;;;;;7.83;100.00;100734.03;5022883;28;20668;-71
2023/04/25 06:44:44;;;;;;;14.73;3.63;;;;;;;7.78;100.00;100754.28;5010846;28;20272;-70
2023/04/25 06:47:11;;;;;;;16.13;3.07;;;;;;;7.90;100.00;100772.47;5021508;28;20305;-71
2023/04/25 06:49:38;;;;;;;18.27;3.77;;;;;;;7.89;100.00;100752.91;5013479;28;20261;-71
2023/04/25 06:52:04;;;;;;;10.47;3.50;;;;;;;7.77;100.00;100752.56;5009982;28;20219;-73
2023/04/25 06:54:29;;;;;;;13.13;3.50;;;;;;;7.79;100.00;100783.19;5024779;28;20317;-71
2023/04/25 06:57:02;;;;;;;16.97;4.03;;;;;;;7.91;100.00;100806.47;5026114;28;20191;-70
2023/04/25 06:59:28;;;;;;;21.17;4.00;;;;;;;7.84;100.00;100769.72;5020034;28;20718;-71
2023/04/25 07:01:53;;;;;;;17.40;3.93;;;;;;;7.90;100.00;100779.25;5008101;28;20349;-69
2023/04/25 07:04:24;;;;;;;9.60;3.17;;;;;;;8.03;100.00;100774.56;5018361;28;21025;-69
2023/04/25 07:06:54;;;;;;;11.67;3.30;;;;;;;8.21;100.00;100820.13;5013306;28;20215;-72
2023/04/25 07:09:26;;;;;;;16.23;2.90;;;;;;;8.15;100.00;100774.88;5008087;28;20239;-70
2023/04/25 07:11:51;;;;;;;10.97;3.80;;;;;;;8.38;100.00;100761.09;5023550;28;20258;-72
2023/04/25 07:14:17;;;;;;;13.90;3.50;;;;;;;8.57;100.00;100765.00;5003580;28;20234;-71
2023/04/25 07:16:44;;;;;;;13.93;3.47;;;;;;;8.78;100.00;100766.41;5012921;28;20182;-71
2023/04/25 07:19:09;;;;;;;13.60;3.30;;;;;;;8.83;100.00;100712.91;5021194;28;20723;-69
2023/04/25 07:21:36;;;;;;;13.03;3.57;;;;;;;9.14;100.00;100706.00;5008347;28;20271;-72
2023/04/25 07:24:02;;;;;;;15.10;3.40;;;;;;;9.08;100.00;100661.59;5022963;28;20690;-69
2023/04/25 07:26:33;;;;;;;15.37;3.17;;;;;;;9.13;100.00;100645.50;4999859;28;20218;-70
2023/04/25 07:29:21;;;;;;;11.27;3.27;;;;;;;9.40;100.00;100619.72;5006684;28;20632;-70
2023/04/25 07:31:46;;;;;;;11.63;3.40;;;;;;;9.31;100.00;100627.19;5025493;28;20187;-70
2023/04/25 07:34:12;;;;;;;11.60;3.00;;;;;;;9.26;100.00;100636.44;5017476;28;20672;-69
2023/04/25 07:36:38;;;;;;;10.20;2.60;;;;;;;9.32;100.00;100634.88;5010395;28;20652;-70
2023/04/25 07:39:03;;;;;;;18.60;3.00;;;;;;;9.38;100.00;100573.69;5006572;28;20691;-68
2023/04/25 07:41:29;;;;;;;11.30;3.50;;;;;;;9.29;100.00;100593.94;5019198;28;20197;-69
2023/04/25 07:43:54;;;;;;;10.97;2.90;;;;;;;9.60;100.00;100582.59;5006823;28;20205;-69
2023/04/25 07:46:20;;;;;;;16.83;4.00;;;;;;;9.64;100.00;100600.56;5011819;28;20718;-69
2023/04/25 07:48:45;;;;;;;13.37;2.53;;;;;;;9.47;100.00;100601.97;5012430;28;20312;-69
2023/04/25 07:51:11;;;;;;;14.53;3.23;;;;;;;9.65;100.00;100606.56;5005730;28;20210;-70
2023/04/25 07:53:38;;;;;;;11.87;3.10;;;;;;;9.57;100.00;100619.19;5003522;28;20861;-69
2023/04/25 07:56:07;;;;;;;9.67;2.80;;;;;;;9.45;100.00;100615.53;5019082;28;20576;-70
2023/04/25 07:58:36;;;;;;;11.90;2.40;;;;;;;9.40;100.00;100614.59;5010891;28;20737;-69
2023/04/25 08:01:04;;;;;;;7.70;2.67;;;;;;;9.21;100.00;100595.47;5007670;28;20190;-69
2023/04/25 08:03:35;;;;;;;10.83;2.50;;;;;;;9.27;100.00;100651.78;5022339;28;20194;-69
2023/04/25 08:06:04;;;;;;;10.23;3.03;;;;;;;9.31;100.00;100645.06;5007948;28;20214;-70
2023/04/25 08:08:31;;;;;;;9.93;2.63;;;;;;;9.49;100.00;100640.34;5020208;28;20297;-69
2023/04/25 08:10:57;;;;;;;11.73;2.63;;;;;;;9.44;100.00;100635.13;5010573;28;20364;-70
2023/04/25 08:13:23;;;;;;;15.53;3.23;;;;;;;9.70;100.00;100674.84;5028718;28;20264;-70
2023/04/25 08:15:49;;;;;;;8.70;2.20;;;;;;;9.74;100.00;100612.72;5009686;28;20746;-69
2023/04/25 08:18:14;;;;;;;9.63;2.10;;;;;;;9.62;100.00;100580.94;4984009;28;20214;-70
2023/04/25 08:20:41;;;;;;;10.27;2.57;;;;;;;10.15;100.00;100577.66;5009391;28;20213;-71
2023/04/25 08:23:10;;;;;;;12.87;2.90;;;;;;;10.62;100.00;100546.00;5018850;28;20217;-71
2023/04/25 08:25:59;;;;;;;11.40;3.03;;;;;;;10.55;100.00;100516.88;4997445;28;20618;-70
2023/04/25 08:28:26;;;;;;;9.67;2.30;;;;;;;10.86;100.00;100521.56;5017836;28;20214;-70
2023/04/25 08:30:53;;;;;;;10.57;2.67;;;;;;;10.75;100.00;100454.00;5004435;28;20277;-69
2023/04/25 08:33:19;;;;;;;6.93;2.30;;;;;;;10.99;100.00;100407.28;5008693;28;20198;-69
2023/04/25 08:35:47;;;;;;;9.47;2.60;;;;;;;10.97;100.00;100404.72;5006873;28;20202;-69
2023/04/25 08:38:14;;;;;;;9.10;2.43;;;;;;;10.59;100.00;100371.84;5001776;28;20218;-71
2023/04/25 08:40:41;;;;;;;11.73;2.33;;;;;;;10.26;100.00;100405.56;5006412;28;20854;-72
2023/04/25 08:43:14;;;;;;;10.63;2.47;;;;;;;10.30;100.00;100480.66;5005720;28;20289;-73
2023/04/25 08:45:42;;;;;;;10.63;2.53;;;;;;;10.22;100.00;100493.34;5019539;28;20209;-72
2023/04/25 08:48:14;;;;;;;11.20;2.50;;;;;;;10.34;100.00;100444.06;5004056;28;20207;-71
2023/04/25 08:50:50;;;;;;;8.23;2.40;;;;;;;10.27;100.00;100414.13;5005475;28;20198;-73
2023/04/25 08:53:21;;;;;;;8.87;2.20;;;;;;;10.36;100.00;100407.41;5019896;28;20202;-72
2023/04/25 08:55:49;;;;;;;9.33;2.33;;;;;;;10.62;100.00;100367.63;5010438;28;20194;-72
2023/04/25 08:58:15;;;;;;;8.00;2.40;;;;;;;10.34;100.00;100355.34;5020126;28;20584;-72
2023/04/25 09:00:41;;;;;;;9.40;2.10;;;;;;;10.22;100.00;100374.78;5022501;28;20190;-72
2023/04/25 09:03:06;;;;;;;9.07;1.63;;;;;;;10.35;100.00;100344.28;5021770;28;20234;-73
2023/04/25 09:05:33;;;;;;;11.47;2.30;;;;;;;10.29;100.00;100380.03;5006812;28;20648;-71
2023/04/25 09:08:00;;;;;;;7.93;2.20;;;;;;;10.07;100.00;100392.50;5019365;28;20559;-71
2023/04/25 09:10:27;;;;;;;9.37;2.37;;;;;;;10.02;100.00;100414.56;5016677;28;20253;-72
2023/04/25 09:13:10;;;;;;;6.83;1.80;;;;;;;9.94;100.00;100391.44;5019880;28;20946;-72
2023/04/25 09:16:07;;;;;;;6.87;1.77;;;;;;;11.13;99.10;100345.09;5010395;28;20199;-72
2023/04/25 09:18:53;;;;;;;10.03;1.50;;;;;;;11.26;100.00;100364.88;5016425;28;20219;-73
2023/04/25 09:21:22;;;;;;;12.23;2.17;;;;;;;11.29;97.90;100335.84;5014715;28;20199;-73
2023/04/25 09:23:49;;;;;;;5.33;1.97;;;;;;;10.98;100.00;100355.22;5015353;28;20660;-72
2023/04/25 09:26:17;;;;;;;8.50;1.90;;;;;;;10.50;100.00;100430.63;5023463;28;20302;-73
2023/04/25 09:28:43;;;;;;;8.83;2.00;;;;;;;9.48;100.00;100715.25;5005815;28;20233;-74
2023/04/25 09:31:11;;;;;;;6.77;1.73;;;;;;;9.06;100.00;100873.53;5023353;28;20182;-71
2023/04/25 09:33:43;;;;;;;3.33;1.00;;;;;;;8.67;100.00;100841.00;5007831;28;20194;-73
2023/04/25 09:36:11;;;;;;;9.57;1.40;;;;;;;8.69;100.00;100890.38;5007879;28;20195;-71
2023/04/25 09:38:56;;;;;;;4.27;1.13;;;;;;;8.43;100.00;100887.09;5005027;28;20212;-71
2023/04/25 09:41:26;;;;;;;5.23;1.00;;;;;;;8.33;100.00;100968.41;4986177;28;20254;-71
2023/04/25 09:43:58;;;;;;;5.00;1.27;;;;;;;8.23;100.00;101025.94;5022600;28;20198;-71
2023/04/25 09:46:32;;;;;;;4.20;1.63;;;;;;;8.24;100.00;101014.09;5007300;28;20214;-72
2023/04/25 09:48:57;;;;;;;6.33;1.20;;;;;;;8.33;100.00;101015.22;4989872;28;20210;-71
2023/04/25 09:51:33;;;;;;;5.27;1.70;;;;;;;8.22;100.00;100968.13;5004432;28;20205;-72
2023/04/25 09:53:59;;;;;;;7.37;1.70;;;;;;;8.42;100.00;100989.97;5012319;28;20404;-71
2023/04/25 09:56:37;;;;;;;7.03;1.50;;;;;;;8.72;100.00;100954.28;5006291;28;20722;-73
2023/04/25 09:59:06;;;;;;;5.63;1.53;;;;;;;9.23;100.00;100902.06;5004920;28;20259;-75
2023/04/25 10:01:34;;;;;;;5.53;1.50;;;;;;;9.82;100.00;100841.28;5005259;28;20206;-71
2023/04/25 10:04:11;;;;;;;6.17;1.60;;;;;;;10.15;100.00;100764.44;5009305;28;20631;-71
2023/04/25 10:06:49;;;;;;;6.97;1.70;;;;;;;10.48;100.00;100719.00;5010559;28;20213;-71
2023/04/25 10:09:18;;;;;;;7.10;1.83;;;;;;;10.60;100.00;100714.09;4999929;28;20210;-71
2023/04/25 10:11:47;;;;;;;9.37;1.83;;;;;;;10.86;100.00;100700.88;5022877;28;20597;-71
2023/04/25 10:14:14;;;;;;;6.60;1.70;;;;;;;10.62;100.00;100692.81;5020345;28;20202;-74
2023/04/25 10:16:41;;;;;;;5.10;1.20;;;;;;;10.81;100.00;100661.53;5020519;28;20218;-73
2023/04/25 10:19:07;;;;;;;6.60;1.40;;;;;;;10.81;100.00;100638.47;5017640;28;20869;-75
2023/04/25 10:21:34;;;;;;;5.93;1.50;;;;;;;11.33;100.00;100514.47;4990126;28;20195;-70
2023/04/25 10:24:00;;;;;;;4.73;1.53;;;;;;;11.19;100.00;100498.91;5019178;28;20199;-72
2023/04/25 10:26:25;;;;;;;9.53;1.63;;;;;;;10.80;100.00;100518.06;5019691;28;20695;-73
2023/04/25 10:28:59;;;;;;;5.80;1.63;;;;;;;10.64;100.00;100486.28;5003363;28;20223;-71
2023/04/25 10:31:25;;;;;;;8.73;2.00;;;;;;;11.07;95.64;100434.72;5020297;28;20264;-71
2023/04/25 10:33:51;;;;;;;7.73;1.50;;;;;;;11.77;92.37;100388.41;5015219;28;20210;-72
2023/04/25 10:36:24;;;;;;;11.80;1.90;;;;;;;12.34;99.29;100421.25;5021823;28;20190;-73
2023/04/25 10:38:50;;;;;;;5.77;1.73;;;;;;;12.28;97.00;100414.38;5023004;28;20232;-71
2023/04/25 10:41:22;;;;;;;7.70;2.20;;;;;;;12.17;85.46;100325.34;5026471;28;20209;-72
2023/04/25 10:43:50;;;;;;;7.57;1.50;;;;;;;12.25;90.26;100378.41;5024014;28;20202;-70
2023/04/25 10:46:23;;;;;;;4.73;1.83;;;;;;;12.22;84.00;100328.78;5023344;28;20241;-72
2023/04/25 10:48:53;;;;;;;6.40;1.67;;;;;;;12.05;82.09;100300.47;5022687;28;20770;-75
2023/04/25 10:51:36;;;;;;;5.13;1.47;;;;;;;11.85;91.96;100367.94;5023590;28;20536;-73
2023/04/25 10:54:04;;;;;;;9.23;2.47;;;;;;;12.54;93.01;100374.25;5024598;28;20317;-73
2023/04/25 10:56:37;;;;;;;8.33;1.80;;;;;;;13.21;88.17;100359.06;5018260;28;20219;-73
2023/04/25 10:59:10;;;;;;;8.20;1.90;;;;;;;13.25;75.61;100248.47;5026214;28;20219;-72
2023/04/25 11:01:40;;;;;;;7.70;2.40;;;;;;;13.21;75.14;100251.91;5028743;28;20198;-72
2023/04/25 11:04:06;;;;;;;4.33;1.40;;;;;;;13.28;71.62;100237.31;5021029;28;20198;-73
2023/04/25 11:06:46;;;;;;;6.60;1.30;;;;;;;12.60;66.08;100194.50;5018163;28;20225;-72
2023/04/25 11:09:13;;;;;;;9.37;1.90;;;;;;;11.93;72.36;100261.06;5008676;28;20776;-74
2023/04/25 11:11:39;;;;;;;4.37;1.37;;;;;;;11.64;86.39;100367.75;5018357;28;20652;-71
2023/04/25 11:14:04;;;;;;;4.73;1.20;;;;;;;11.24;82.07;100365.72;5004223;28;20222;-71
2023/04/25 11:16:30;;;;;;;4.27;1.00;;;;;;;10.99;90.61;100417.53;5023854;28;20194;-71
2023/04/25 11:18:59;;;;;;;5.93;1.30;;;;;;;10.89;92.03;100447.34;5007465;28;20214;-71
2023/04/25 11:21:28;;;;;;;7.33;1.67;;;;;;;10.91;89.29;100448.22;5023418;28;20246;-71
2023/04/25 11:23:56;;;;;;;6.97;1.67;;;;;;;11.05;89.73;100446.66;5018726;28;20202;-71
2023/04/25 11:26:22;;;;;;;4.97;1.60;;;;;;;10.61;99.28;100513.56;5015716;28;20213;-72
2023/04/25 11:28:49;;;;;;;5.23;1.43;;;;;;;10.64;100.00;100570.78;5011091;28;20273;-72
2023/04/25 11:31:15;;;;;;;6.97;1.73;;;;;;;10.47;100.00;100554.28;5020873;28;20198;-71